Huntington, IN (46750)

8:22 PM EST on February 10, 2016 (GMT -0500)
Carlisle Crossing | | Change Station
CLOSE
Current Station
Personal Weather Station
Location: Huntington, IN
Elevation: 820 ft
Nearby Weather Stations

Elev 820 ft 40.91 °N, 85.51 °W | Updated 9 minutes ago

Overcast
Overcast
12.9 °F
Feels Like 3 °F
N
6.8
Wind Variable Wind from SW

Today
High -- | Low -- °F
--% Chance of Precip.
Yesterday
High -- | Low -- °F
Precip. -- in
Pressure 30.09 in
Visibility 10.0 miles
Clouds Overcast 5000 ft
Windchill 3 °F
Dew Point 8 °F
Humidity 80%
Rainfall 0.00 in
Snow Depth Not available.
7:43 AM 6:09 PM
Waxing Crescent, 8% visible
METAR KFWA 110054Z 27014KT 10SM OVC050 M08/M13 A3005 RMK AO2 SNE18 SLP190 P0000 T10831133 $
Pressure 30.09 in
Visibility 10.0 miles
Clouds Overcast 5000 ft
Windchill 3 °F
Dew Point 8 °F
Humidity 80%
Rainfall 0.00 in
Snow Depth Not available.
7:43 AM 6:09 PM
Waxing Crescent, 8% visible
METAR KFWA 110054Z 27014KT 10SM OVC050 M08/M13 A3005 RMK AO2 SNE18 SLP190 P0000 T10831133 $

10-Day Weather Forecast

Almanac

Astronomy

Feb. 10, 2016 Rise Set
Actual Time
Civil Twilight
Nautical Twilight
Astronomical Twilight
Moon
Length of Visible Light
Length of Day
Tomorrow will be .
, % of the Moon is Illuminated

Today's Extremes

State Highs State Lows

Community

WunderPhotos

Upload Photos

1,891,963 photos uploaded!

WunderBlog® & News

Nearby

Air Quality

  Air Quality AQ Index Pollutant
Not available.

Snow Depth

Station Depth Elevation

Earthquake Activity

City Distance Mag. Time & Date
Minimum magnitude displayed is 2.5.

Coastal Water Temperatures

Place Temperature

Stations

Nearby Weather Stations

Station Location Temp. Windchill Dew Point Humidity Wind Precip. Elev Updated Type
                   

Watches & Warnings

There are currently no watches in effect.